createdAt,value
2023-04-16T00:01:02.902Z,5.00
2023-04-16T00:03:29.875Z,5.05
2023-04-16T00:05:56.908Z,4.53
2023-04-16T00:08:24.171Z,5.82
2023-04-16T00:10:53.022Z,7.18
2023-04-16T00:13:20.020Z,14.33
2023-04-16T00:15:47.039Z,6.38
2023-04-16T00:18:13.871Z,10.00
2023-04-16T00:20:40.821Z,6.78
2023-04-16T00:23:07.812Z,6.50
2023-04-16T00:25:34.708Z,7.50
2023-04-16T00:28:01.683Z,6.13
2023-04-16T00:30:28.707Z,11.68
2023-04-16T00:32:55.602Z,7.65
2023-04-16T00:35:22.618Z,7.00
2023-04-16T00:37:49.664Z,6.37
2023-04-16T00:40:16.795Z,6.93
2023-04-16T00:42:43.633Z,7.32
2023-04-16T00:45:11.423Z,7.35
2023-04-16T00:47:38.870Z,6.88
2023-04-16T00:50:06.321Z,6.67
2023-04-16T00:52:34.674Z,6.95
2023-04-16T00:55:01.800Z,9.02
2023-04-16T00:57:28.794Z,7.78
2023-04-16T00:59:56.758Z,7.60
2023-04-16T01:02:24.247Z,7.57
2023-04-16T01:04:51.706Z,7.05
2023-04-16T01:07:18.838Z,9.15
2023-04-16T01:09:45.772Z,9.60
2023-04-16T01:12:12.681Z,7.97
2023-04-16T01:14:39.706Z,8.20
2023-04-16T01:17:06.590Z,9.32
2023-04-16T01:19:33.446Z,9.00
2023-04-16T01:22:00.320Z,9.25
2023-04-16T01:24:27.238Z,8.57
2023-04-16T01:26:54.209Z,8.63
2023-04-16T01:29:21.263Z,10.05
2023-04-16T01:31:48.277Z,22.67
2023-04-16T01:34:18.411Z,20.05
2023-04-16T01:36:45.358Z,24.17
2023-04-16T01:39:12.286Z,9.97
2023-04-16T01:41:39.167Z,12.65
2023-04-16T01:44:06.182Z,9.02
2023-04-16T01:46:35.320Z,11.00
2023-04-16T01:49:03.273Z,12.32
2023-04-16T01:51:30.409Z,14.70
2023-04-16T01:53:57.344Z,9.90
2023-04-16T01:56:24.312Z,8.75
2023-04-16T01:58:51.351Z,7.63
2023-04-16T02:01:18.443Z,10.73
2023-04-16T02:03:45.712Z,8.10
2023-04-16T02:06:12.997Z,8.32
2023-04-16T02:08:39.863Z,8.55
2023-04-16T02:11:06.711Z,8.93
2023-04-16T02:13:33.776Z,9.77
2023-04-16T02:16:00.730Z,10.77
2023-04-16T02:18:27.970Z,10.90
2023-04-16T02:20:56.506Z,8.93
2023-04-16T02:23:23.369Z,8.38
2023-04-16T02:25:50.196Z,8.20
2023-04-16T02:28:17.660Z,8.90
2023-04-16T02:30:44.999Z,10.48
2023-04-16T02:33:13.196Z,11.50
2023-04-16T02:35:40.864Z,9.88
2023-04-16T02:38:08.408Z,10.65
2023-04-16T02:40:35.767Z,8.17
2023-04-16T02:43:03.626Z,8.10
2023-04-16T02:45:30.505Z,8.00
2023-04-16T02:47:57.472Z,7.57
2023-04-16T02:50:24.359Z,5.15
2023-04-16T02:52:51.194Z,5.30
2023-04-16T02:55:18.140Z,6.03
2023-04-16T02:57:45.016Z,7.15
2023-04-16T03:00:12.260Z,9.77
2023-04-16T03:02:39.283Z,9.95
2023-04-16T03:05:06.629Z,10.10
2023-04-16T03:07:33.521Z,8.50
2023-04-16T03:10:00.461Z,8.27
2023-04-16T03:12:27.456Z,8.27
2023-04-16T03:14:54.310Z,8.40
2023-04-16T03:17:21.213Z,11.17
2023-04-16T03:19:48.332Z,10.60
2023-04-16T03:22:15.177Z,11.43
2023-04-16T03:24:42.003Z,9.00
2023-04-16T03:27:08.992Z,8.93
2023-04-16T03:29:38.689Z,10.50
2023-04-16T03:32:05.511Z,12.30
2023-04-16T03:34:32.456Z,10.07
2023-04-16T03:36:59.279Z,10.02
2023-04-16T03:39:26.262Z,8.65
2023-04-16T03:41:53.208Z,7.93
2023-04-16T03:44:20.009Z,10.10
2023-04-16T03:46:46.926Z,9.90
2023-04-16T03:49:13.947Z,11.07
2023-04-16T03:51:40.771Z,10.73
2023-04-16T03:54:07.649Z,8.20
2023-04-16T03:56:34.563Z,9.10
2023-04-16T03:59:01.371Z,7.97
2023-04-16T04:01:28.308Z,7.50
2023-04-16T04:03:55.312Z,6.90
2023-04-16T04:06:22.314Z,7.40
2023-04-16T04:08:49.215Z,8.27
2023-04-16T04:11:16.257Z,8.63
2023-04-16T04:13:43.104Z,9.23
2023-04-16T04:16:10.012Z,10.38
2023-04-16T04:18:36.972Z,7.37
2023-04-16T04:21:10.286Z,7.78
2023-04-16T04:23:37.528Z,8.55
2023-04-16T04:26:04.570Z,9.55
2023-04-16T04:28:32.173Z,10.45
2023-04-16T04:31:00.177Z,11.07
2023-04-16T04:33:27.834Z,11.32
2023-04-16T04:35:55.403Z,10.60
2023-04-16T04:38:22.773Z,8.30
2023-04-16T04:40:49.622Z,10.38
2023-04-16T04:43:16.478Z,9.50
2023-04-16T04:45:43.517Z,8.63
2023-04-16T04:48:10.414Z,10.05
2023-04-16T04:50:37.486Z,10.63
2023-04-16T04:53:04.686Z,11.13
2023-04-16T04:55:31.584Z,10.20
2023-04-16T04:57:58.410Z,11.00
2023-04-16T05:00:25.274Z,11.13
2023-04-16T05:02:52.217Z,11.43
2023-04-16T05:05:19.396Z,11.73
2023-04-16T05:07:46.339Z,11.60
2023-04-16T05:10:13.268Z,10.65
2023-04-16T05:12:40.252Z,10.90
2023-04-16T05:15:07.925Z,11.73
2023-04-16T05:17:34.761Z,12.18
2023-04-16T05:20:01.714Z,13.30
2023-04-16T05:22:28.606Z,13.15
2023-04-16T05:24:55.423Z,13.25
2023-04-16T05:27:22.400Z,15.50
2023-04-16T05:29:49.348Z,18.92
2023-04-16T05:32:16.278Z,23.47
2023-04-16T05:34:43.164Z,21.98
2023-04-16T05:37:10.162Z,21.95
2023-04-16T05:39:37.125Z,12.93
2023-04-16T05:42:04.220Z,11.68
2023-04-16T05:44:31.222Z,10.57
2023-04-16T05:46:58.036Z,9.77
2023-04-16T05:49:24.852Z,10.73
2023-04-16T05:51:51.727Z,9.63
2023-04-16T05:54:18.551Z,10.65
2023-04-16T05:56:45.312Z,10.57
2023-04-16T05:59:12.350Z,10.40
2023-04-16T06:01:39.288Z,9.80
2023-04-16T06:04:06.580Z,8.50
2023-04-16T06:06:33.511Z,6.32
2023-04-16T06:09:00.392Z,5.93
2023-04-16T06:11:27.252Z,4.75
2023-04-16T06:13:54.133Z,5.07
2023-04-16T06:16:20.987Z,5.95
2023-04-16T06:18:48.244Z,4.78
2023-04-16T06:21:16.158Z,6.20
2023-04-16T06:23:43.044Z,6.18
2023-04-16T06:26:09.882Z,7.15
2023-04-16T06:28:39.701Z,6.40
2023-04-16T06:31:06.590Z,5.68
2023-04-16T06:33:33.497Z,6.40
2023-04-16T06:36:00.349Z,7.10
2023-04-16T06:38:27.253Z,6.35
2023-04-16T06:40:54.184Z,5.22
2023-04-16T06:43:21.216Z,6.32
2023-04-16T06:45:48.158Z,6.07
2023-04-16T06:48:14.985Z,4.50
2023-04-16T06:50:42.021Z,4.70
2023-04-16T06:53:09.142Z,5.13
2023-04-16T06:55:35.981Z,3.97
2023-04-16T06:58:02.816Z,4.03
2023-04-16T07:00:29.841Z,4.90
2023-04-16T07:02:58.392Z,3.90
2023-04-16T07:05:25.795Z,3.70
2023-04-16T07:07:52.696Z,3.90
2023-04-16T07:10:19.645Z,4.10
2023-04-16T07:12:46.676Z,3.30
2023-04-16T07:15:13.561Z,4.57
2023-04-16T07:17:40.464Z,3.65
2023-04-16T07:20:08.196Z,2.90
2023-04-16T07:22:41.030Z,3.77
2023-04-16T07:25:22.123Z,3.85
2023-04-16T07:27:49.032Z,3.45
2023-04-16T07:30:16.110Z,3.25
2023-04-16T07:32:42.939Z,3.35
2023-04-16T07:35:09.998Z,3.23
2023-04-16T07:37:37.036Z,3.70
2023-04-16T07:40:04.175Z,3.50
2023-04-16T07:42:31.153Z,4.95
2023-04-16T07:44:58.159Z,3.00
2023-04-16T07:47:25.216Z,3.97
2023-04-16T07:49:52.344Z,3.10
2023-04-16T07:52:19.728Z,3.03
2023-04-16T07:54:46.558Z,2.60
2023-04-16T07:57:13.401Z,2.30
2023-04-16T07:59:40.536Z,2.70
2023-04-16T08:02:09.202Z,2.30
2023-04-16T08:04:36.521Z,2.47
2023-04-16T08:07:03.618Z,3.80
2023-04-16T08:09:36.433Z,2.88
2023-04-16T08:12:04.206Z,2.80
2023-04-16T08:14:31.036Z,2.90
2023-04-16T08:16:57.982Z,2.70
2023-04-16T08:19:24.930Z,2.65
2023-04-16T08:21:51.807Z,2.08
2023-04-16T08:24:18.788Z,1.70
2023-04-16T08:26:45.697Z,1.60
2023-04-16T08:29:12.928Z,1.50
2023-04-16T08:31:40.069Z,1.85
2023-04-16T08:34:07.164Z,1.50
2023-04-16T08:36:34.135Z,1.40
2023-04-16T08:39:01.134Z,1.40
2023-04-16T08:41:31.216Z,1.50
2023-04-16T08:44:02.037Z,1.67
2023-04-16T08:46:32.443Z,1.80
2023-04-16T08:49:00.804Z,1.43
2023-04-16T08:51:31.674Z,1.60
2023-04-16T08:54:04.242Z,1.80
2023-04-16T08:56:36.181Z,1.80
2023-04-16T08:59:03.676Z,1.75
2023-04-16T09:01:31.018Z,1.60
2023-04-16T09:03:59.298Z,1.50
2023-04-16T09:06:28.100Z,1.67
2023-04-16T09:08:55.331Z,1.70
2023-04-16T09:11:22.266Z,1.83
2023-04-16T09:13:49.161Z,1.70
2023-04-16T09:16:16.082Z,1.77
2023-04-16T09:18:43.165Z,1.85
2023-04-16T09:21:10.624Z,1.75
2023-04-16T09:23:38.509Z,1.70
2023-04-16T09:26:06.233Z,1.80
2023-04-16T09:28:41.043Z,1.60
2023-04-16T09:31:18.739Z,2.35
2023-04-16T09:34:02.758Z,2.20
2023-04-16T09:36:30.009Z,2.40
2023-04-16T09:38:57.698Z,2.73
2023-04-16T09:41:29.332Z,2.42
2023-04-16T09:44:01.236Z,2.58
2023-04-16T09:46:32.382Z,2.20
2023-04-16T09:49:04.991Z,2.22
2023-04-16T09:51:37.918Z,2.30
2023-04-16T09:54:05.656Z,2.40
2023-04-16T09:56:32.569Z,2.08
2023-04-16T09:59:02.873Z,2.00
2023-04-16T10:01:31.093Z,2.25
2023-04-16T10:03:59.984Z,2.10
2023-04-16T10:06:29.855Z,1.95
2023-04-16T10:08:56.639Z,1.90
2023-04-16T10:11:24.266Z,2.10
2023-04-16T10:13:51.446Z,2.40
2023-04-16T10:16:18.993Z,2.40
2023-04-16T10:18:47.169Z,2.30
2023-04-16T10:21:14.152Z,2.20
2023-04-16T10:23:42.191Z,1.60
2023-04-16T10:26:09.685Z,2.17
2023-04-16T10:28:37.562Z,1.80
2023-04-16T10:31:07.355Z,1.98
2023-04-16T10:33:40.433Z,2.30
2023-04-16T10:36:15.158Z,2.08
2023-04-16T10:38:46.526Z,2.03
2023-04-16T10:41:13.546Z,2.10
2023-04-16T10:43:43.003Z,1.90
2023-04-16T10:46:31.123Z,2.38
2023-04-16T10:49:03.746Z,1.92
2023-04-16T10:51:33.914Z,2.20
2023-04-16T10:54:09.613Z,1.83
2023-04-16T10:56:37.751Z,2.05
2023-04-16T10:59:06.031Z,2.20
2023-04-16T11:01:37.940Z,2.00
2023-04-16T11:04:20.678Z,1.95
2023-04-16T11:07:33.185Z,1.70
2023-04-16T11:10:04.699Z,1.90
2023-04-16T11:12:47.603Z,1.88
2023-04-16T11:15:16.340Z,2.10
2023-04-16T11:17:50.178Z,1.77
2023-04-16T11:20:22.828Z,1.70
2023-04-16T11:22:51.686Z,1.73
2023-04-16T11:25:21.952Z,1.70
2023-04-16T11:27:49.344Z,2.05
2023-04-16T11:30:17.204Z,2.10
2023-04-16T11:32:45.426Z,2.17
2023-04-16T11:35:19.388Z,1.80
2023-04-16T11:37:46.889Z,1.83
2023-04-16T11:40:14.041Z,1.60
2023-04-16T11:42:42.289Z,1.90
2023-04-16T11:45:11.573Z,2.00
2023-04-16T11:47:46.390Z,1.90
2023-04-16T11:50:23.291Z,1.85
2023-04-16T11:52:51.651Z,1.80
2023-04-16T11:55:19.445Z,1.65
2023-04-16T11:57:46.602Z,1.60
2023-04-16T12:00:14.506Z,1.50
2023-04-16T12:02:55.038Z,1.60
2023-04-16T12:05:36.801Z,1.40
2023-04-16T12:08:06.319Z,0.90
2023-04-16T12:10:38.288Z,1.10
2023-04-16T12:13:16.131Z,1.58
2023-04-16T12:15:51.193Z,1.70
2023-04-16T12:18:20.449Z,1.67
2023-04-16T12:20:47.758Z,1.10
2023-04-16T12:23:29.819Z,1.20
2023-04-16T12:25:57.645Z,1.00
2023-04-16T12:28:33.354Z,0.90
2023-04-16T12:31:00.842Z,0.70
2023-04-16T12:33:28.095Z,1.00
2023-04-16T12:35:57.623Z,0.97
2023-04-16T12:38:24.838Z,1.10
2023-04-16T12:40:52.138Z,0.90
2023-04-16T12:43:21.816Z,1.60
2023-04-16T12:45:48.696Z,2.97
2023-04-16T12:48:15.604Z,1.80
2023-04-16T12:50:42.463Z,1.73
2023-04-16T12:53:09.499Z,1.40
2023-04-16T12:55:36.486Z,1.23
2023-04-16T12:58:03.485Z,1.10
2023-04-16T13:00:30.355Z,1.13
2023-04-16T13:02:57.245Z,1.23
2023-04-16T13:05:24.574Z,1.00
2023-04-16T13:07:51.417Z,1.27
2023-04-16T13:10:22.218Z,1.00
2023-04-16T13:12:49.279Z,1.43
2023-04-16T13:15:16.194Z,1.50
2023-04-16T13:17:43.111Z,1.40
2023-04-16T13:20:10.654Z,1.48
2023-04-16T13:22:37.682Z,1.30
2023-04-16T13:25:05.221Z,1.47
2023-04-16T13:27:32.243Z,1.50
2023-04-16T13:29:59.074Z,1.60
2023-04-16T13:32:25.967Z,1.60
2023-04-16T13:34:53.207Z,1.70
2023-04-16T13:37:20.036Z,2.50
2023-04-16T13:39:49.965Z,1.73
2023-04-16T13:42:16.858Z,1.77
2023-04-16T13:44:43.881Z,1.80
2023-04-16T13:47:10.809Z,1.80
2023-04-16T13:49:40.272Z,1.70
2023-04-16T13:52:07.157Z,2.20
2023-04-16T13:54:33.998Z,2.60
2023-04-16T13:57:00.936Z,2.30
2023-04-16T13:59:27.782Z,1.73
2023-04-16T14:01:54.852Z,1.80
2023-04-16T14:04:21.832Z,1.45
2023-04-16T14:06:50.265Z,1.70
2023-04-16T14:09:17.153Z,2.30
2023-04-16T14:11:44.134Z,1.70
2023-04-16T14:14:10.998Z,3.57
2023-04-16T14:16:37.959Z,2.50
2023-04-16T14:19:05.039Z,2.50
2023-04-16T14:21:31.926Z,1.88
2023-04-16T14:23:58.772Z,2.00
2023-04-16T14:26:25.712Z,1.60
2023-04-16T14:28:52.581Z,1.45
2023-04-16T14:31:19.574Z,1.98
2023-04-16T14:33:46.779Z,1.42
2023-04-16T14:36:13.668Z,2.08
2023-04-16T14:38:40.551Z,1.50
2023-04-16T14:41:07.623Z,1.52
2023-04-16T14:43:34.462Z,1.45
2023-04-16T14:46:01.325Z,1.23
2023-04-16T14:48:28.262Z,1.35
2023-04-16T14:50:55.052Z,1.40
2023-04-16T14:53:23.719Z,1.30
2023-04-16T14:55:52.275Z,1.90
2023-04-16T14:58:19.139Z,2.05
2023-04-16T15:00:46.036Z,2.00
2023-04-16T15:03:13.187Z,2.10
2023-04-16T15:05:40.130Z,1.92
2023-04-16T15:08:07.032Z,2.95
2023-04-16T15:10:33.947Z,3.40
2023-04-16T15:13:00.962Z,4.10
2023-04-16T15:15:27.867Z,3.10
2023-04-16T15:17:54.984Z,2.88
2023-04-16T15:20:21.977Z,2.80
2023-04-16T15:22:48.862Z,3.20
2023-04-16T15:25:15.870Z,3.58
2023-04-16T15:27:42.696Z,4.03
2023-04-16T15:30:10.042Z,4.10
2023-04-16T15:32:37.242Z,4.03
2023-04-16T15:35:04.359Z,6.00
2023-04-16T15:37:31.652Z,4.57
2023-04-16T15:39:58.506Z,4.00
2023-04-16T15:42:25.248Z,4.90
2023-04-16T15:44:52.150Z,6.00
2023-04-16T15:47:19.049Z,5.75
2023-04-16T15:49:45.958Z,5.18
2023-04-16T15:52:13.248Z,4.60
2023-04-16T15:54:40.427Z,4.32
2023-04-16T15:57:07.322Z,3.20
2023-04-16T15:59:34.342Z,2.70
2023-04-16T16:02:01.531Z,2.58
2023-04-16T16:04:28.635Z,2.30
2023-04-16T16:06:56.272Z,2.30
2023-04-16T16:09:23.481Z,2.38
2023-04-16T16:11:50.499Z,1.90
2023-04-16T16:14:18.700Z,2.10
2023-04-16T16:16:45.841Z,2.13
2023-04-16T16:19:12.697Z,2.20
2023-04-16T16:21:39.610Z,1.95
2023-04-16T16:24:06.960Z,2.00
2023-04-16T16:26:33.922Z,2.80
2023-04-16T16:29:00.912Z,3.70
2023-04-16T16:31:27.977Z,4.40
2023-04-16T16:33:56.528Z,4.45
2023-04-16T16:36:23.375Z,3.65
2023-04-16T16:38:50.271Z,3.70
2023-04-16T16:41:17.162Z,3.70
2023-04-16T16:43:43.967Z,3.33
2023-04-16T16:46:10.900Z,4.47
2023-04-16T16:48:37.686Z,5.50
2023-04-16T16:51:04.531Z,4.00
2023-04-16T16:53:31.433Z,3.50
2023-04-16T16:55:58.288Z,3.20
2023-04-16T16:58:25.140Z,3.42
2023-04-16T17:00:52.011Z,4.03
2023-04-16T17:03:19.067Z,4.65
2023-04-16T17:05:45.937Z,4.60
2023-04-16T17:08:12.895Z,4.50
2023-04-16T17:10:39.814Z,4.30
2023-04-16T17:13:06.729Z,3.30
2023-04-16T17:15:33.762Z,3.33
2023-04-16T17:18:00.641Z,3.07
2023-04-16T17:20:27.587Z,2.65
2023-04-16T17:22:54.531Z,2.35
2023-04-16T17:25:21.528Z,2.50
2023-04-16T17:27:48.316Z,2.42
2023-04-16T17:30:15.843Z,2.27
2023-04-16T17:32:47.016Z,2.20
2023-04-16T17:35:14.073Z,2.38
2023-04-16T17:37:41.100Z,2.30
2023-04-16T17:40:08.694Z,2.10
2023-04-16T17:42:36.578Z,2.03
2023-04-16T17:45:03.631Z,1.83
2023-04-16T17:47:30.590Z,2.30
2023-04-16T17:49:57.447Z,1.90
2023-04-16T17:52:24.431Z,1.98
2023-04-16T17:54:51.223Z,2.50
2023-04-16T17:57:18.064Z,2.17
2023-04-16T17:59:44.937Z,2.75
2023-04-16T18:02:12.434Z,3.03
2023-04-16T18:04:42.534Z,3.30
2023-04-16T18:07:09.662Z,3.33
2023-04-16T18:09:36.590Z,3.30
2023-04-16T18:12:03.542Z,2.58
2023-04-16T18:14:30.448Z,2.40
2023-04-16T18:16:57.238Z,3.20
2023-04-16T18:19:24.220Z,3.30
2023-04-16T18:21:51.164Z,2.50
2023-04-16T18:24:18.006Z,2.58
2023-04-16T18:26:46.995Z,2.80
2023-04-16T18:29:14.857Z,3.00
2023-04-16T18:31:42.339Z,2.70
2023-04-16T18:34:09.584Z,2.80
2023-04-16T18:36:36.562Z,2.90
2023-04-16T18:39:03.425Z,2.60
2023-04-16T18:41:30.820Z,2.83
2023-04-16T18:43:58.047Z,2.57
2023-04-16T18:46:25.330Z,2.65
2023-04-16T18:48:52.515Z,2.88
2023-04-16T18:51:19.473Z,2.95
2023-04-16T18:53:46.294Z,2.80
2023-04-16T18:56:13.171Z,2.97
2023-04-16T18:58:40.344Z,3.00
2023-04-16T19:01:07.402Z,2.50
2023-04-16T19:03:34.515Z,2.92
2023-04-16T19:06:01.946Z,3.10
2023-04-16T19:08:29.447Z,2.80
2023-04-16T19:10:56.270Z,2.65
2023-04-16T19:13:23.236Z,2.55
2023-04-16T19:15:50.072Z,2.65
2023-04-16T19:18:16.981Z,3.08
2023-04-16T19:20:43.916Z,2.70
2023-04-16T19:23:10.800Z,2.70
2023-04-16T19:25:37.649Z,2.90
2023-04-16T19:28:04.694Z,2.72
2023-04-16T19:30:31.625Z,3.00
2023-04-16T19:32:58.629Z,2.80
2023-04-16T19:35:25.733Z,2.80
2023-04-16T19:37:52.716Z,2.80
2023-04-16T19:40:19.613Z,3.03
2023-04-16T19:42:46.451Z,2.92
2023-04-16T19:45:13.280Z,2.50
2023-04-16T19:47:40.144Z,2.58
2023-04-16T19:50:07.799Z,2.85
2023-04-16T19:52:34.545Z,2.63
2023-04-16T19:55:01.516Z,2.58
2023-04-16T19:57:28.470Z,2.43
2023-04-16T19:59:55.417Z,2.20
2023-04-16T20:02:22.419Z,2.60
2023-04-16T20:04:49.538Z,2.60
2023-04-16T20:07:16.510Z,2.78
2023-04-16T20:09:43.373Z,2.60
2023-04-16T20:12:10.260Z,2.75
2023-04-16T20:14:37.164Z,2.80
2023-04-16T20:17:04.107Z,2.40
2023-04-16T20:19:31.154Z,2.75
2023-04-16T20:21:58.068Z,2.50
2023-04-16T20:24:24.956Z,2.65
2023-04-16T20:26:51.826Z,2.70
2023-04-16T20:29:18.664Z,2.80
2023-04-16T20:31:45.469Z,2.80
2023-04-16T20:34:12.368Z,3.00
2023-04-16T20:36:39.242Z,2.78
2023-04-16T20:39:06.306Z,2.55
2023-04-16T20:41:33.591Z,2.50
2023-04-16T20:44:00.420Z,2.50
2023-04-16T20:46:27.326Z,2.57
2023-04-16T20:48:54.178Z,2.75
2023-04-16T20:51:21.046Z,2.70
2023-04-16T20:53:47.853Z,2.38
2023-04-16T20:56:14.946Z,2.72
2023-04-16T20:58:42.182Z,2.53
2023-04-16T21:01:09.186Z,2.40
2023-04-16T21:03:36.331Z,2.85
2023-04-16T21:06:03.383Z,2.60
2023-04-16T21:08:30.262Z,4.25
2023-04-16T21:10:57.199Z,4.97
2023-04-16T21:13:24.069Z,5.85
2023-04-16T21:15:51.005Z,3.00
2023-04-16T21:18:18.077Z,3.15
2023-04-16T21:20:45.053Z,2.40
2023-04-16T21:23:12.060Z,2.50
2023-04-16T21:25:39.208Z,2.13
2023-04-16T21:28:06.148Z,2.45
2023-04-16T21:30:32.944Z,2.33
2023-04-16T21:33:00.076Z,2.33
2023-04-16T21:35:27.243Z,3.30
2023-04-16T21:37:54.164Z,4.60
2023-04-16T21:40:21.180Z,2.67
2023-04-16T21:42:48.257Z,2.47
2023-04-16T21:45:15.287Z,2.40
2023-04-16T21:47:42.188Z,2.47
2023-04-16T21:50:09.277Z,2.22
2023-04-16T21:52:36.145Z,2.50
2023-04-16T21:55:03.168Z,2.38
2023-04-16T21:57:30.027Z,2.38
2023-04-16T21:59:56.896Z,2.30
2023-04-16T22:02:24.065Z,2.25
2023-04-16T22:04:50.959Z,2.03
2023-04-16T22:07:18.032Z,2.10
2023-04-16T22:09:44.981Z,2.05
2023-04-16T22:12:11.929Z,2.30
2023-04-16T22:14:42.290Z,2.38
2023-04-16T22:17:16.517Z,2.33
2023-04-16T22:19:43.688Z,2.38
2023-04-16T22:22:11.143Z,2.45
2023-04-16T22:24:38.050Z,2.27
2023-04-16T22:27:04.922Z,2.55
2023-04-16T22:29:31.775Z,2.58
2023-04-16T22:31:58.679Z,2.88
2023-04-16T22:34:25.572Z,2.60
2023-04-16T22:36:52.409Z,2.30
2023-04-16T22:39:19.329Z,2.20
2023-04-16T22:41:46.210Z,2.30
2023-04-16T22:44:13.068Z,2.20
2023-04-16T22:46:40.076Z,2.67
2023-04-16T22:49:06.895Z,2.20
2023-04-16T22:51:33.738Z,2.40
2023-04-16T22:54:00.632Z,2.30
2023-04-16T22:56:27.484Z,2.67
2023-04-16T22:58:54.841Z,2.45
2023-04-16T23:01:21.860Z,2.47
2023-04-16T23:03:51.287Z,2.10
2023-04-16T23:06:18.152Z,2.40
2023-04-16T23:08:45.175Z,2.15
2023-04-16T23:11:12.046Z,2.20
2023-04-16T23:13:38.906Z,2.30
2023-04-16T23:16:06.186Z,2.40
2023-04-16T23:18:33.063Z,2.53
2023-04-16T23:20:59.921Z,2.08
2023-04-16T23:23:26.876Z,1.83
2023-04-16T23:25:54.020Z,2.07
2023-04-16T23:28:21.263Z,2.30
2023-04-16T23:30:51.998Z,2.10
2023-04-16T23:33:19.000Z,2.00
2023-04-16T23:35:47.076Z,2.17
2023-04-16T23:38:13.943Z,2.20
2023-04-16T23:40:40.703Z,2.40
2023-04-16T23:43:07.631Z,2.20
2023-04-16T23:45:34.542Z,2.22
2023-04-16T23:48:01.630Z,2.17
2023-04-16T23:50:28.599Z,2.00
2023-04-16T23:52:55.504Z,2.10
2023-04-16T23:55:22.371Z,2.03
2023-04-16T23:57:49.323Z,2.10
